Pagrindinis puslapis
METAR-TAF:

METAR-TAF

Oro uostai :

Vasa, Suomija

platuma: 63-03N, ilguma: 021-46E, Aukštis: 4 m

Dabartinis oras

Ataskaita buvo paskelbta 12 minutes, ne 02:50 UTC
Vėjas 6 kt iš Vakarų/Šiaurės Vakarų
Temperatūra 13°C
Drėgmė 82%
Slėgis 1017 hPa
Matomumas 10 km arba daugiau
Su prošvaistėmis ne aukštis 2200 ft

METAR: EFVA 240250Z AUTO 30006KT 9999 BKN022 13/10 Q1017

Laikas: 06:02 (03:02 UTC)

Prognozė

Ataskaita buvo paskelbta 37 minutes, ne 02:25 UTC
Prognozė galioja nuo 24 metu 03 UTC su 25 metu 03 UTC
Vėjas 6 kt iš Vakarų/Šiaurės Vakarų
Matomumas 10 km arba daugiau
Mažai debesys ne aukštis 2000 ft
Tikimybė 40%
nuo 24 metu 22 UTC su 25 metu 03 UTC
Matomumas: 0400 m
ne aukštis 100 ft
rūkas

TAF: EFVA 240225Z 2403/2503 30006KT 9999 FEW020 PROB40 2422/2503 0400 FG VV001

Orai ataskaitas ir orų prognozės (METAR, TAF).

turimą stotys yra geltonos ir raudonos taškus žemėlapyje.

Perkelti pele per norėdami pamatyti stoties vardą.

Tada spustelėkite, norėdami matyti oro stebėjimo ir prognozės.

Norėdami pakeisti žemėlapį: spustelėkite ant žalios mygtukų su juodo kryžiaus žemyn,; žalią mygtuką su brūkšneliu, jei norite nutolinti; arba žalių rodyklių gretimoms žemėlapius.


METAR-TAF: